Atwater, Minnesota
Current Conditions -  °F | °C
As of 7:53 PM on Sunday 21 Dec 2014 (Local Time) from KLJF Reporting Station
Haze Haze  
Wind Chill: 33°   Ceiling: 200
Heat Index: 37°   Visibility: 1mi
Dew Point: 37°   Wind: 6mph
Humidity: 100%   Direction: 150°SSE
Pressure: 29.67"   Gusts: NA
Location:  45.14°N, 94.78°W
Report Text: KLJF 220153Z AUTO 15005KT 1SM BR OVC002 03/03 A2967 RMK AO2
Loading
Personal Weather Stations






























Interactive Weather Map New forecast layout! Learn more

10-Day Weather Forecast

Advertisements
Track Severe Weather on mobile